Raymondville, TX (78580)

11:38 AM CDT on July 02, 2015 (GMT -0500)
Valley International | | Change Station
CLOSE
Current Station
Airport
Location: Harlingen,
Elevation: 36 ft
Nearby Weather Stations

Elev 36 ft 26.23 °N, 97.65 °W | Updated 22 minutes ago

Overcast
Overcast
84 °F
Feels Like 91 °F
N
29
Wind Variable Wind from South
Gusts 39 mph

Today
High -- | Low -- °F
--% Chance of Precip.
Yesterday
High -- | Low -- °F
Precip. -- in
6:42 AM 8:28 PM
Full, 100% visible
Pressure 30.02 in
Visibility 9.0 miles
Clouds Scattered Clouds 2500 ft
Mostly Cloudy 4100 ft
Mostly Cloudy 5000 ft
Heat Index 91 °F
Dew Point 74 °F
Humidity 72%
Rainfall 0.00 in
Snow Depth Not available.
UV 5 out of 12
Pollen 3.80 out of 12
Air Quality Not available.
Flu Activity Not available.
SPECI KHRL 021616Z 19025G34KT 9SM SCT025 BKN041 BKN050 29/23 A3002 RMK AO2 PK WND 20034/1615 LTG DSNT W PRESRR T02890233

More Conditions Fewer Conditions

Pressure 30.02 in
Visibility 9.0 miles
Clouds Scattered Clouds 2500 ft
Mostly Cloudy 4100 ft
Mostly Cloudy 5000 ft
Heat Index 91 °F
Dew Point 74 °F
Humidity 72%
Rainfall 0.00 in
Snow Depth Not available.
UV 5 out of 12
Pollen 3.80 out of 12
Air Quality Not available.
Flu Activity Not available.
SPECI KHRL 021616Z 19025G34KT 9SM SCT025 BKN041 BKN050 29/23 A3002 RMK AO2 PK WND 20034/1615 LTG DSNT W PRESRR T02890233

More Conditions Fewer Conditions

10-Day Weather Forecast

×

Almanac

Astronomy

Jul. 02, 2015 Rise Set
Actual Time
Civil Twilight
Nautical Twilight
Astronomical Twilight
Moon
Length of Visible Light
Length of Day
Tomorrow will be .
, % of the Moon is Illuminated

Today's Extremes

State Highs State Lows

Community

WunderPhotos

Upload Photos

1,834,496 photos uploaded!

WunderBlogs® & News

Nearby

Air Quality

  Air Quality AQ Index Pollutant
Not available.

Snow Depth

Station Depth Elevation

Earthquake Activity

City Distance Mag. Time & Date
Minimum magnitude displayed is 2.5.

Coastal Water Temperatures

Place Temperature

Stations

Nearby Weather Stations

Station Location Temp. Windchill Dew Point Humidity Wind Precip. Elev Updated Type